CSE4 weather

Lachute Airport
Lachute, Quebec, Canada

Public forecast

Using degrees Celsius for public forecast. Weather courtesy of forecast.io.

Closest aviation weather report (METAR) to Lachute Airport

Closest report is Montreal International (Mirabel) Airport, 14.1 nm (26.2 km) E. Retrieved 2020/05/30 19:00 UTC (38 minutes ago):

CYMX 301900Z 26005G18KT 190V310 45SM BKN056 BKN088 OVC200 21/08 A2979 RMK SC6AC1CI1 SLP091 DENSITY ALT 1200FT

Closest aviation forecast (TAF) to Lachute Airport

Closest forecast is Montreal International (Mirabel) Airport, 14.1 nm (26.2 km) E. Retrieved 2020/05/30 18:42 UTC (56 minutes ago):

TAF CYMX 301738Z 3018/3118 24007KT P6SM SCT030 BKN200 FM302100 23012KT P6SM BKN060 TEMPO 3021/3023 P6SM -SHRA OVC040 FM302300 28012KT P6SM BKN030 TEMPO 3023/3102 VRB15G25KT 4SM SHRA BR BKN020 FM310200 30012KT P6SM BKN020 TEMPO 3102/3112 SCT020 BECMG 3104/3106 31005KT FM311200 32007KT P6SM SCT020 RMK NXT FCST BY 310000Z